Time;durP1;ratioP1;P1;durP2;ratioP2;P2;SDS_P1;SDS_P2;PMS_P1;PMS_P2;Temp;Humidity;BMP_temperature;BMP_pressure;BME280_temperature;BME280_humidity;BME280_pressure;Samples;Min_cycle;Max_cycle;Signal;HPM_P1;HPM_P2
2023/03/06 00:03:34;;;;;;;4.00;1.13;;;7.50;98.60;;;;;;10512226;28;20185;-63
2023/03/06 00:08:34;;;;;;;2.13;1.30;;;7.50;98.60;;;;;;10514557;28;20514;-63
2023/03/06 00:13:35;;;;;;;3.38;1.13;;;7.50;98.60;;;;;;10517859;28;20024;-63
2023/03/06 00:18:36;;;;;;;1.17;0.75;;;7.50;98.60;;;;;;10518531;28;20050;-63
2023/03/06 00:23:36;;;;;;;1.25;0.90;;;7.50;98.60;;;;;;10510824;28;20024;-63
2023/03/06 00:28:37;;;;;;;2.15;0.70;;;7.40;98.60;;;;;;10518119;28;20025;-63
2023/03/06 00:33:37;;;;;;;2.05;0.70;;;7.40;98.60;;;;;;10520397;28;20024;-63
2023/03/06 00:38:38;;;;;;;1.42;0.77;;;7.40;98.60;;;;;;10530742;28;20020;-64
2023/03/06 00:43:39;;;;;;;2.75;0.82;;;7.40;98.60;;;;;;10524672;28;20141;-63
2023/03/06 00:48:39;;;;;;;1.10;0.80;;;7.40;98.60;;;;;;10514947;28;20062;-63
2023/03/06 00:53:40;;;;;;;2.00;1.10;;;7.40;98.60;;;;;;10523247;28;20024;-62
2023/03/06 00:58:40;;;;;;;1.80;0.80;;;7.40;98.60;;;;;;10502154;28;20030;-63
2023/03/06 01:03:41;;;;;;;1.85;1.00;;;7.40;98.60;;;;;;10524815;28;20618;-63
2023/03/06 01:08:42;;;;;;;1.50;0.85;;;7.30;98.60;;;;;;10529844;28;20019;-64
2023/03/06 01:13:43;;;;;;;1.42;0.90;;;7.30;98.60;;;;;;10534282;28;20020;-63
2023/03/06 01:18:45;;;;;;;2.13;0.70;;;7.30;98.60;;;;;;10511778;28;20019;-64
2023/03/06 01:23:46;;;;;;;2.30;0.80;;;7.30;98.60;;;;;;10525712;28;20042;-64
2023/03/06 01:28:46;;;;;;;1.58;0.90;;;7.30;98.60;;;;;;10525148;28;20024;-64
2023/03/06 01:33:47;;;;;;;2.72;0.90;;;7.30;98.60;;;;;;10524659;28;20024;-64
2023/03/06 01:38:48;;;;;;;2.10;0.82;;;7.30;98.60;;;;;;10515444;28;20018;-63
2023/03/06 01:43:48;;;;;;;1.10;0.80;;;7.20;98.60;;;;;;10521460;28;20107;-63
2023/03/06 01:48:53;;;;;;;2.15;0.82;;;7.20;98.60;;;;;;10532456;28;20122;-63
2023/03/06 01:53:55;;;;;;;3.70;1.05;;;7.20;98.60;;;;;;10505014;28;20083;-63
2023/03/06 01:58:58;;;;;;;2.70;0.88;;;7.20;98.60;;;;;;10514567;28;20108;-62
2023/03/06 02:04:00;;;;;;;2.08;1.20;;;7.20;98.60;;;;;;10514921;28;20028;-63
2023/03/06 02:09:02;;;;;;;2.10;1.10;;;7.20;98.60;;;;;;10520996;28;20097;-64
2023/03/06 02:14:03;;;;;;;1.90;1.00;;;7.20;98.60;;;;;;10517968;28;20380;-63
2023/03/06 02:19:07;;;;;;;2.53;1.30;;;7.20;98.60;;;;;;10526518;28;20016;-62
2023/03/06 02:24:25;;;;;;;1.88;1.20;;;7.20;98.60;;;;;;10515883;28;20459;-64
2023/03/06 02:29:28;;;;;;;1.30;0.85;;;7.20;98.60;;;;;;10512126;28;20064;-63
2023/03/06 02:34:28;;;;;;;2.28;1.30;;;7.10;98.60;;;;;;10523436;28;20043;-64
2023/03/06 02:39:32;;;;;;;1.58;1.17;;;7.10;98.50;;;;;;10528748;28;20047;-64
2023/03/06 02:44:34;;;;;;;2.97;1.27;;;7.10;98.50;;;;;;10515084;28;20032;-63
2023/03/06 02:49:35;;;;;;;4.13;1.10;;;7.10;98.50;;;;;;10535564;28;20254;-63
2023/03/06 02:54:35;;;;;;;2.97;1.60;;;7.10;98.50;;;;;;10535986;28;20036;-63
2023/03/06 02:59:36;;;;;;;4.15;1.33;;;7.10;98.50;;;;;;10530382;28;20533;-63
2023/03/06 03:04:37;;;;;;;3.03;1.05;;;7.10;98.50;;;;;;10524480;28;20213;-64
2023/03/06 03:09:37;;;;;;;2.25;1.48;;;7.10;98.50;;;;;;10536012;28;20454;-63
2023/03/06 03:14:38;;;;;;;2.28;1.40;;;7.10;98.50;;;;;;10525397;28;20041;-63
2023/03/06 03:19:38;;;;;;;1.98;1.15;;;7.10;98.50;;;;;;10524316;28;20044;-63
2023/03/06 03:24:40;;;;;;;2.75;1.30;;;7.10;98.50;;;;;;10521444;28;20992;-63
2023/03/06 03:29:41;;;;;;;1.92;1.20;;;7.10;98.50;;;;;;10514111;28;20107;-63
2023/03/06 03:34:42;;;;;;;2.13;1.50;;;7.10;98.50;;;;;;10515698;28;20361;-63
2023/03/06 03:39:43;;;;;;;2.85;1.20;;;7.10;98.50;;;;;;10524658;28;20349;-64
2023/03/06 03:44:44;;;;;;;1.65;1.15;;;7.10;98.50;;;;;;10513221;28;20107;-63
2023/03/06 03:49:44;;;;;;;2.30;1.55;;;7.10;98.50;;;;;;10512868;28;20454;-64
2023/03/06 03:54:45;;;;;;;2.00;1.08;;;7.10;98.50;;;;;;10512636;28;20051;-62
2023/03/06 03:59:46;;;;;;;2.13;1.15;;;7.10;98.50;;;;;;10508910;28;20020;-63
2023/03/06 04:04:47;;;;;;;2.75;1.27;;;7.10;98.50;;;;;;10516817;28;20050;-63
2023/03/06 04:09:47;;;;;;;3.28;1.20;;;7.10;98.50;;;;;;10519814;28;20101;-63
2023/03/06 04:14:48;;;;;;;1.95;1.00;;;7.10;98.50;;;;;;10520864;28;20033;-63
2023/03/06 04:19:49;;;;;;;1.73;0.93;;;7.10;98.50;;;;;;10522756;28;20088;-64
2023/03/06 04:24:49;;;;;;;1.63;0.98;;;7.10;98.50;;;;;;10507033;28;20282;-63
2023/03/06 04:29:50;;;;;;;1.38;0.90;;;7.10;98.50;;;;;;10521197;28;20040;-63
2023/03/06 04:34:51;;;;;;;1.88;0.88;;;7.10;98.50;;;;;;10506650;28;20077;-63
2023/03/06 04:39:52;;;;;;;2.22;1.08;;;7.10;98.50;;;;;;10507189;28;20108;-63
2023/03/06 04:44:52;;;;;;;1.85;0.80;;;7.10;98.50;;;;;;10516230;28;20021;-63
2023/03/06 04:49:53;;;;;;;1.40;0.80;;;7.10;98.50;;;;;;10523994;28;20369;-63
2023/03/06 04:54:53;;;;;;;1.25;0.63;;;7.10;98.50;;;;;;10517430;28;20544;-63
2023/03/06 04:59:54;;;;;;;1.10;0.70;;;7.10;98.50;;;;;;10522141;27;20480;-63
2023/03/06 05:04:55;;;;;;;1.08;0.73;;;7.10;98.50;;;;;;10524116;28;20021;-63
2023/03/06 05:09:55;;;;;;;1.00;0.60;;;7.10;98.60;;;;;;10515615;28;20024;-64
2023/03/06 05:14:57;;;;;;;1.20;0.57;;;7.10;98.50;;;;;;10518324;28;20506;-63
2023/03/06 05:19:57;;;;;;;1.35;0.77;;;7.10;98.50;;;;;;10523769;28;20047;-64
2023/03/06 05:24:59;;;;;;;1.10;0.70;;;7.10;98.50;;;;;;10515111;28;20024;-63
2023/03/06 05:29:59;;;;;;;1.65;0.80;;;7.10;98.50;;;;;;10514563;28;20043;-63
2023/03/06 05:35:00;;;;;;;0.90;0.50;;;7.10;98.50;;;;;;10516938;28;20020;-63
2023/03/06 05:40:05;;;;;;;1.10;0.80;;;7.10;98.50;;;;;;10522276;28;20020;-63
2023/03/06 05:45:06;;;;;;;1.55;0.50;;;7.10;98.50;;;;;;10515759;28;20405;-63
2023/03/06 05:50:09;;;;;;;1.00;0.50;;;7.10;98.60;;;;;;10520220;28;20090;-65
2023/03/06 05:55:11;;;;;;;0.68;0.47;;;7.10;98.60;;;;;;10532927;28;20016;-63
2023/03/06 06:00:12;;;;;;;1.00;0.55;;;7.10;98.60;;;;;;10531802;28;20274;-63
2023/03/06 06:05:13;;;;;;;0.65;0.45;;;7.10;98.60;;;;;;10527494;28;20020;-63
2023/03/06 06:10:14;;;;;;;0.60;0.47;;;7.10;98.60;;;;;;10528598;28;20012;-63
2023/03/06 06:15:14;;;;;;;0.90;0.43;;;7.10;98.60;;;;;;10528991;28;20026;-63
2023/03/06 06:20:16;;;;;;;0.80;0.47;;;7.10;98.60;;;;;;10525328;28;20023;-63
2023/03/06 06:25:16;;;;;;;0.52;0.30;;;7.00;98.60;;;;;;10525975;28;20241;-63
2023/03/06 06:30:17;;;;;;;0.75;0.38;;;7.00;98.60;;;;;;10528598;28;20487;-64
2023/03/06 06:35:18;;;;;;;0.30;0.30;;;7.00;98.60;;;;;;10529513;28;20028;-63
2023/03/06 06:40:20;;;;;;;1.08;0.50;;;7.00;98.60;;;;;;10532184;28;20406;-63
2023/03/06 06:45:20;;;;;;;0.60;0.40;;;7.00;98.60;;;;;;10530746;28;20081;-63
2023/03/06 06:50:21;;;;;;;1.60;0.50;;;7.00;98.60;;;;;;10531463;28;20016;-63
2023/03/06 06:55:21;;;;;;;0.50;0.40;;;7.00;98.60;;;;;;10524074;28;20016;-63
2023/03/06 07:00:23;;;;;;;1.00;0.50;;;7.00;98.60;;;;;;10518433;28;20034;-63
2023/03/06 07:05:23;;;;;;;0.40;0.30;;;7.00;98.60;;;;;;10511690;28;20023;-63
2023/03/06 07:10:24;;;;;;;0.65;0.40;;;7.00;98.60;;;;;;10526503;28;20032;-63
2023/03/06 07:15:25;;;;;;;0.70;0.50;;;7.00;98.60;;;;;;10524391;28;20024;-64
2023/03/06 07:20:26;;;;;;;1.20;0.52;;;7.00;98.60;;;;;;10514536;28;20418;-63
2023/03/06 07:25:27;;;;;;;1.15;0.35;;;7.00;98.60;;;;;;10523749;28;20072;-63
2023/03/06 07:30:27;;;;;;;0.38;0.32;;;7.00;98.60;;;;;;10520542;28;20040;-64
2023/03/06 07:35:28;;;;;;;0.52;0.30;;;7.00;98.50;;;;;;10521971;28;20402;-64
2023/03/06 07:40:28;;;;;;;0.50;0.30;;;7.00;98.50;;;;;;10513370;28;20028;-63
2023/03/06 07:45:29;;;;;;;0.50;0.30;;;7.10;98.50;;;;;;10521098;28;20184;-63
2023/03/06 07:50:31;;;;;;;0.70;0.50;;;7.10;98.50;;;;;;10519993;28;20039;-63
2023/03/06 07:55:31;;;;;;;0.40;0.40;;;7.10;98.50;;;;;;10502958;28;20032;-63
2023/03/06 08:00:32;;;;;;;1.33;0.40;;;7.10;98.40;;;;;;10516479;28;20032;-63
2023/03/06 08:05:33;;;;;;;0.52;0.35;;;7.10;98.40;;;;;;10520084;28;20228;-62
2023/03/06 08:10:33;;;;;;;1.13;0.47;;;7.10;98.40;;;;;;10509693;28;20178;-63
2023/03/06 08:15:34;;;;;;;1.00;0.50;;;7.10;98.40;;;;;;10523894;28;20127;-63
2023/03/06 08:20:34;;;;;;;0.55;0.30;;;7.10;98.40;;;;;;10524278;28;20498;-62
2023/03/06 08:25:35;;;;;;;0.93;0.50;;;7.10;98.40;;;;;;10510524;28;20119;-63
2023/03/06 08:30:36;;;;;;;0.50;0.30;;;7.20;98.40;;;;;;10509554;28;20093;-62
2023/03/06 08:35:36;;;;;;;0.52;0.30;;;7.20;98.40;;;;;;10516349;28;20036;-63
2023/03/06 08:40:37;;;;;;;0.77;0.45;;;7.30;98.30;;;;;;10515745;28;20121;-63
2023/03/06 08:45:38;;;;;;;0.50;0.40;;;7.40;98.30;;;;;;10505814;28;20079;-63
2023/03/06 08:50:40;;;;;;;0.30;0.30;;;7.40;98.20;;;;;;10519001;28;20028;-63
2023/03/06 08:55:40;;;;;;;0.32;0.20;;;7.50;98.20;;;;;;10511247;28;20119;-63
2023/03/06 09:00:41;;;;;;;1.67;0.40;;;7.60;98.10;;;;;;10522579;28;20032;-62
2023/03/06 09:05:41;;;;;;;0.60;0.30;;;7.70;98.10;;;;;;10515712;28;20084;-62
2023/03/06 09:10:47;;;;;;;0.65;0.30;;;7.70;98.00;;;;;;10515505;28;20085;-63
2023/03/06 09:15:47;;;;;;;0.55;0.30;;;7.80;98.00;;;;;;10510213;28;20028;-63
2023/03/06 09:20:48;;;;;;;0.68;0.30;;;7.80;98.00;;;;;;10517993;28;20020;-63
2023/03/06 09:25:53;;;;;;;0.70;0.30;;;7.90;98.00;;;;;;10488349;28;20060;-62
2023/03/06 09:30:54;;;;;;;1.00;0.30;;;7.90;98.00;;;;;;10512097;28;20028;-63
2023/03/06 09:35:56;;;;;;;1.63;0.40;;;7.90;98.00;;;;;;10522118;28;20028;-63
2023/03/06 09:41:02;;;;;;;0.63;0.32;;;8.00;98.00;;;;;;10523740;28;20047;-63
2023/03/06 09:46:23;;;;;;;3.83;0.43;;;8.10;97.90;;;;;;10515353;28;20457;-64
2023/03/06 09:51:38;;;;;;;1.80;0.43;;;8.10;97.90;;;;;;10509904;28;20160;-65
2023/03/06 09:56:41;;;;;;;0.50;0.30;;;8.10;97.90;;;;;;10503946;28;20036;-64
2023/03/06 10:01:47;;;;;;;0.55;0.40;;;8.10;97.90;;;;;;10514125;28;20084;-64
2023/03/06 10:06:50;;;;;;;0.95;0.30;;;8.10;97.90;;;;;;10502651;28;20392;-63
2023/03/06 10:11:56;;;;;;;0.52;0.20;;;8.20;97.90;;;;;;10508526;28;20028;-66
2023/03/06 10:16:57;;;;;;;0.40;0.30;;;8.20;97.90;;;;;;10507747;28;20062;-65
2023/03/06 10:22:31;;;;;;;0.65;0.35;;;8.20;97.90;;;;;;10505060;28;20434;-65
2023/03/06 10:27:50;;;;;;;2.30;0.32;;;8.20;98.00;;;;;;10511687;28;20089;-65
2023/03/06 10:33:10;;;;;;;0.88;0.30;;;8.20;98.00;;;;;;10509680;28;20035;-66
2023/03/06 10:38:26;;;;;;;2.05;0.40;;;8.20;98.00;;;;;;10513124;28;20017;-66
2023/03/06 10:43:27;;;;;;;1.48;0.30;;;8.20;98.00;;;;;;10514329;28;20036;-66
2023/03/06 10:48:29;;;;;;;0.47;0.35;;;8.20;98.00;;;;;;10512526;28;20028;-66
2023/03/06 10:53:31;;;;;;;1.17;0.40;;;8.30;98.00;;;;;;10519925;28;20072;-65
2023/03/06 10:58:32;;;;;;;0.68;0.40;;;8.30;98.00;;;;;;10519802;28;20549;-65
2023/03/06 11:03:34;;;;;;;0.80;0.40;;;8.40;97.90;;;;;;10513987;28;20123;-66
2023/03/06 11:08:41;;;;;;;1.58;0.35;;;8.50;97.90;;;;;;10516940;28;20082;-65
2023/03/06 11:13:43;;;;;;;0.73;0.40;;;8.50;97.70;;;;;;10519873;28;20339;-65
2023/03/06 11:19:05;;;;;;;0.85;0.40;;;8.60;97.70;;;;;;10522341;28;20024;-65
2023/03/06 11:24:15;;;;;;;0.60;0.40;;;8.60;97.90;;;;;;10512732;28;20028;-65
2023/03/06 11:29:41;;;;;;;1.58;0.50;;;8.70;97.80;;;;;;10507944;28;20036;-64
2023/03/06 11:35:05;;;;;;;4.35;0.57;;;8.70;97.60;;;;;;10513716;28;20376;-65
2023/03/06 11:40:09;;;;;;;0.45;0.32;;;8.70;97.60;;;;;;10510498;28;21286;-71
2023/03/06 11:45:23;;;;;;;2.40;0.30;;;9.20;97.70;;;;;;10527340;28;20431;-67
2023/03/06 11:50:35;;;;;;;4.57;0.90;;;8.80;97.20;;;;;;10511546;28;20062;-68
2023/03/06 11:56:00;;;;;;;0.90;0.45;;;8.70;96.70;;;;;;10522138;28;20556;-66
2023/03/06 12:01:25;;;;;;;3.50;0.50;;;8.70;96.30;;;;;;10517543;28;20021;-66
2023/03/06 12:06:29;;;;;;;0.60;0.40;;;8.40;96.40;;;;;;10520467;28;20460;-68
2023/03/06 12:11:40;;;;;;;0.60;0.50;;;8.30;96.00;;;;;;10520406;28;20040;-67
2023/03/06 12:16:57;;;;;;;3.13;0.47;;;8.20;95.60;;;;;;10524882;28;20462;-67
2023/03/06 12:22:01;;;;;;;2.05;0.60;;;8.10;95.30;;;;;;10514794;28;20016;-66
2023/03/06 12:27:37;;;;;;;2.45;0.70;;;8.10;95.20;;;;;;10524360;28;20028;-66
2023/03/06 12:32:43;;;;;;;1.17;0.40;;;8.00;94.70;;;;;;10521490;28;20040;-67
2023/03/06 12:37:53;;;;;;;1.25;0.35;;;8.00;94.50;;;;;;10518995;28;20068;-67
2023/03/06 12:42:57;;;;;;;1.55;0.40;;;7.90;94.10;;;;;;10504501;28;20205;-68
2023/03/06 12:47:59;;;;;;;1.45;0.75;;;7.90;94.50;;;;;;10526091;28;20082;-68
2023/03/06 12:53:04;;;;;;;0.75;0.25;;;7.80;94.10;;;;;;10513231;28;20249;-68
2023/03/06 12:58:26;;;;;;;1.80;0.30;;;7.90;93.80;;;;;;10518613;28;20391;-68
2023/03/06 13:03:49;;;;;;;0.43;0.43;;;7.90;92.40;;;;;;10508629;28;20516;-68
2023/03/06 13:08:53;;;;;;;1.38;0.28;;;7.90;93.00;;;;;;10511861;28;20032;-68
2023/03/06 13:13:54;;;;;;;0.95;0.40;;;8.10;93.20;;;;;;10507245;28;20028;-67
2023/03/06 13:19:09;;;;;;;2.55;0.50;;;8.10;92.90;;;;;;10511793;28;20036;-67
2023/03/06 13:24:24;;;;;;;0.60;0.40;;;8.00;92.70;;;;;;10505418;28;20048;-66
2023/03/06 13:29:37;;;;;;;1.17;0.40;;;7.90;92.60;;;;;;10511044;28;20032;-67
2023/03/06 13:34:45;;;;;;;1.42;0.43;;;7.90;92.40;;;;;;10516652;28;20060;-67
2023/03/06 13:39:58;;;;;;;0.60;0.40;;;8.00;92.40;;;;;;10505882;28;20024;-67
2023/03/06 13:45:22;;;;;;;0.82;0.47;;;8.00;91.70;;;;;;10515440;28;20044;-68
2023/03/06 13:50:42;;;;;;;1.15;0.50;;;7.90;91.60;;;;;;10514226;28;20473;-67
2023/03/06 13:55:58;;;;;;;0.80;0.68;;;7.90;91.70;;;;;;10508675;28;20119;-67
2023/03/06 14:01:23;;;;;;;2.08;0.50;;;7.80;92.60;;;;;;10520161;28;20480;-67
2023/03/06 14:06:33;;;;;;;0.77;0.45;;;7.70;91.50;;;;;;10510739;28;20040;-67
2023/03/06 14:11:35;;;;;;;1.33;0.30;;;7.60;92.20;;;;;;10516671;28;20528;-67
2023/03/06 14:16:39;;;;;;;0.73;0.40;;;7.70;92.70;;;;;;10520866;28;20055;-67
2023/03/06 14:21:55;;;;;;;1.05;0.70;;;7.70;92.60;;;;;;10525534;28;20046;-67
2023/03/06 14:26:56;;;;;;;2.00;0.50;;;7.80;91.50;;;;;;10511377;28;20048;-67
2023/03/06 14:31:59;;;;;;;0.90;0.50;;;7.80;92.40;;;;;;10518192;28;20139;-67
2023/03/06 14:37:04;;;;;;;1.17;0.60;;;7.90;92.40;;;;;;10515573;28;20055;-66
2023/03/06 14:42:06;;;;;;;2.53;0.65;;;7.80;92.30;;;;;;10526974;28;20051;-65
2023/03/06 14:47:26;;;;;;;3.47;0.85;;;7.80;92.40;;;;;;10515391;28;20024;-66
2023/03/06 14:52:27;;;;;;;1.98;0.65;;;7.80;92.00;;;;;;10525147;28;20486;-67
2023/03/06 14:57:28;;;;;;;1.35;0.85;;;7.70;92.60;;;;;;10515054;28;20028;-67
2023/03/06 15:02:31;;;;;;;2.15;1.10;;;7.60;92.60;;;;;;10520997;28;20287;-66
2023/03/06 15:07:32;;;;;;;2.53;1.02;;;7.60;92.60;;;;;;10524107;28;20540;-66
2023/03/06 15:12:35;;;;;;;1.70;1.17;;;7.60;92.60;;;;;;10511464;28;20025;-67
2023/03/06 15:17:41;;;;;;;2.65;1.60;;;7.60;92.70;;;;;;10522462;28;20016;-68
2023/03/06 15:22:42;;;;;;;3.08;1.48;;;7.70;92.50;;;;;;10524366;28;20028;-68
2023/03/06 15:27:51;;;;;;;4.20;1.70;;;7.70;92.60;;;;;;10522421;28;20012;-68
2023/03/06 15:33:07;;;;;;;3.67;1.55;;;7.60;92.60;;;;;;10525137;28;20035;-67
2023/03/06 15:38:40;;;;;;;4.55;1.83;;;7.60;92.20;;;;;;10519255;28;20020;-66
2023/03/06 15:43:41;;;;;;;5.57;2.17;;;7.40;92.40;;;;;;10517292;28;20035;-65
2023/03/06 15:49:06;;;;;;;8.27;2.40;;;7.40;93.40;;;;;;10506267;28;20027;-65
2023/03/06 15:54:06;;;;;;;7.68;2.60;;;7.50;93.80;;;;;;10516874;28;20067;-65
2023/03/06 15:59:20;;;;;;;3.75;2.25;;;7.60;94.00;;;;;;10515057;28;20106;-65
2023/03/06 16:04:21;;;;;;;4.10;2.03;;;7.70;94.10;;;;;;10519894;28;20024;-68
2023/03/06 16:09:22;;;;;;;4.55;2.00;;;7.70;94.20;;;;;;10521995;28;20024;-65
2023/03/06 16:14:22;;;;;;;7.97;1.88;;;7.90;95.30;;;;;;10519640;28;20070;-65
2023/03/06 16:19:24;;;;;;;5.75;2.15;;;8.30;94.80;;;;;;10531252;28;20028;-66
2023/03/06 16:24:25;;;;;;;3.35;1.80;;;8.40;94.70;;;;;;10511849;28;20478;-65
2023/03/06 16:29:27;;;;;;;3.20;1.83;;;8.30;94.90;;;;;;10526623;28;20024;-66
2023/03/06 16:34:27;;;;;;;4.53;2.30;;;8.30;95.10;;;;;;10512068;28;20062;-67
2023/03/06 16:39:28;;;;;;;4.05;2.00;;;8.20;95.20;;;;;;10503525;28;20564;-65
2023/03/06 16:44:29;;;;;;;4.78;2.20;;;8.20;95.30;;;;;;10509548;28;20024;-65
2023/03/06 16:49:29;;;;;;;4.55;2.50;;;8.20;95.40;;;;;;10518217;28;20068;-66
2023/03/06 16:54:30;;;;;;;5.68;2.85;;;8.10;95.50;;;;;;10506410;28;20035;-66
2023/03/06 16:59:30;;;;;;;5.53;2.78;;;8.10;95.70;;;;;;10524039;28;20038;-66
2023/03/06 17:04:31;;;;;;;4.70;3.08;;;8.10;95.90;;;;;;10508527;28;20055;-65
2023/03/06 17:09:32;;;;;;;5.20;3.35;;;8.10;96.00;;;;;;10524341;28;20023;-66
2023/03/06 17:14:33;;;;;;;6.05;4.10;;;8.00;96.10;;;;;;10510156;28;20239;-66
2023/03/06 17:19:33;;;;;;;6.25;3.65;;;8.00;96.20;;;;;;10517262;28;20433;-65
2023/03/06 17:24:34;;;;;;;8.20;4.53;;;8.00;96.20;;;;;;10514641;28;20481;-65
2023/03/06 17:29:35;;;;;;;6.82;4.15;;;8.00;96.20;;;;;;10503869;28;20037;-66
2023/03/06 17:34:35;;;;;;;7.07;3.60;;;8.00;96.30;;;;;;10517132;28;20028;-66
2023/03/06 17:39:37;;;;;;;5.68;3.78;;;8.10;96.30;;;;;;10530638;28;20066;-66
2023/03/06 17:44:38;;;;;;;6.40;4.00;;;8.00;96.30;;;;;;10505985;28;20103;-65
2023/03/06 17:49:39;;;;;;;6.65;3.65;;;7.90;96.30;;;;;;10514941;28;20032;-63
2023/03/06 17:54:39;;;;;;;5.97;3.55;;;8.00;96.50;;;;;;10517325;28;20033;-67
2023/03/06 17:59:45;;;;;;;9.13;4.03;;;8.00;96.40;;;;;;10506782;28;20115;-66
2023/03/06 18:04:46;;;;;;;8.60;4.25;;;8.10;96.50;;;;;;10510170;28;20027;-65
2023/03/06 18:09:46;;;;;;;7.38;3.92;;;8.10;96.50;;;;;;10530005;28;20019;-65
2023/03/06 18:14:48;;;;;;;6.47;4.05;;;8.10;96.50;;;;;;10508055;28;20391;-65
2023/03/06 18:19:50;;;;;;;6.30;3.47;;;8.00;96.50;;;;;;10502711;28;20036;-65
2023/03/06 18:24:51;;;;;;;5.70;3.78;;;8.00;96.60;;;;;;10511735;28;20020;-65
2023/03/06 18:29:52;;;;;;;8.65;4.10;;;8.00;96.60;;;;;;10507173;28;20032;-65
2023/03/06 18:34:53;;;;;;;7.80;4.07;;;8.00;96.60;;;;;;10508870;28;20637;-65
2023/03/06 18:39:54;;;;;;;8.90;4.60;;;7.90;96.60;;;;;;10498867;28;20036;-65
2023/03/06 18:44:55;;;;;;;8.30;4.05;;;7.90;96.60;;;;;;10506980;28;20089;-65
2023/03/06 18:49:55;;;;;;;7.50;3.83;;;7.90;96.60;;;;;;10506277;28;20033;-65
2023/03/06 18:54:56;;;;;;;7.45;4.13;;;7.90;96.60;;;;;;10501578;28;20512;-65
2023/03/06 18:59:56;;;;;;;8.00;4.30;;;7.90;96.60;;;;;;10502580;28;20051;-65
2023/03/06 19:04:57;;;;;;;8.23;4.30;;;7.90;96.60;;;;;;10499779;28;20053;-65
2023/03/06 19:09:58;;;;;;;8.57;4.38;;;7.80;96.60;;;;;;10507354;28;20049;-66
2023/03/06 19:14:58;;;;;;;7.63;4.65;;;7.80;96.60;;;;;;10510223;28;20023;-65
2023/03/06 19:19:59;;;;;;;10.85;5.10;;;7.80;96.60;;;;;;10520376;28;20031;-65
2023/03/06 19:24:59;;;;;;;9.32;4.82;;;7.80;96.60;;;;;;10512611;28;20423;-65
2023/03/06 19:30:00;;;;;;;10.05;5.15;;;7.80;96.60;;;;;;10510780;28;20054;-65
2023/03/06 19:35:02;;;;;;;13.40;5.78;;;7.80;96.70;;;;;;10517041;28;20024;-65
2023/03/06 19:40:06;;;;;;;11.70;5.72;;;7.80;96.70;;;;;;10513301;28;20046;-65
2023/03/06 19:45:07;;;;;;;11.85;5.85;;;7.70;96.60;;;;;;10512677;28;20020;-65
2023/03/06 19:50:08;;;;;;;13.85;6.60;;;7.70;96.60;;;;;;10519711;28;20123;-65
2023/03/06 19:55:09;;;;;;;14.40;6.97;;;7.70;96.70;;;;;;10513686;28;20130;-65
2023/03/06 20:00:10;;;;;;;13.70;6.15;;;7.70;96.70;;;;;;10519541;28;20030;-65
2023/03/06 20:05:11;;;;;;;13.20;6.22;;;7.70;96.70;;;;;;10518664;28;20020;-65
2023/03/06 20:10:12;;;;;;;14.30;7.03;;;7.70;96.70;;;;;;10509532;28;20282;-65
2023/03/06 20:15:12;;;;;;;17.13;7.90;;;7.70;96.70;;;;;;10511728;28;20020;-65
2023/03/06 20:20:13;;;;;;;13.23;6.78;;;7.70;96.70;;;;;;10519856;28;20040;-65
2023/03/06 20:25:13;;;;;;;12.60;6.90;;;7.70;96.70;;;;;;10516162;28;20024;-65
2023/03/06 20:30:15;;;;;;;15.65;7.70;;;7.60;96.70;;;;;;10514627;28;20016;-65
2023/03/06 20:35:16;;;;;;;15.25;7.38;;;7.60;96.70;;;;;;10516466;28;20115;-65
2023/03/06 20:40:17;;;;;;;16.55;7.32;;;7.60;96.80;;;;;;10518234;28;20099;-65
2023/03/06 20:45:18;;;;;;;15.80;7.35;;;7.60;96.80;;;;;;10519303;28;20123;-65
2023/03/06 20:50:18;;;;;;;17.02;7.78;;;7.60;96.80;;;;;;10520961;28;20030;-66
2023/03/06 20:55:19;;;;;;;15.32;7.50;;;7.60;96.80;;;;;;10516295;28;20024;-65
2023/03/06 21:00:20;;;;;;;19.58;8.20;;;7.60;96.80;;;;;;10522416;28;20032;-65
2023/03/06 21:05:20;;;;;;;19.67;8.48;;;7.60;96.80;;;;;;10519781;28;20153;-65
2023/03/06 21:10:21;;;;;;;19.63;8.32;;;7.60;96.80;;;;;;10518210;28;20020;-65
2023/03/06 21:15:25;;;;;;;18.05;8.13;;;7.60;96.80;;;;;;10510107;28;20029;-65
2023/03/06 21:20:26;;;;;;;17.33;7.90;;;7.50;96.80;;;;;;10513995;28;20021;-66
2023/03/06 21:25:27;;;;;;;19.95;8.15;;;7.50;96.80;;;;;;10522500;28;20121;-65
2023/03/06 21:30:28;;;;;;;19.10;8.68;;;7.50;96.80;;;;;;10513312;28;20039;-66
2023/03/06 21:35:29;;;;;;;19.00;7.82;;;7.50;96.80;;;;;;10515889;28;20420;-64
2023/03/06 21:40:29;;;;;;;17.20;8.07;;;7.50;96.80;;;;;;10521761;28;20708;-65
2023/03/06 21:45:30;;;;;;;19.00;8.55;;;7.50;96.80;;;;;;10514386;28;20201;-65
2023/03/06 21:50:31;;;;;;;18.25;8.38;;;7.50;97.10;;;;;;10523152;28;20020;-65
2023/03/06 21:55:31;;;;;;;18.88;8.32;;;7.50;96.90;;;;;;10523332;28;20035;-65
2023/03/06 22:00:35;;;;;;;20.05;8.15;;;7.40;96.90;;;;;;10515852;28;20017;-65
2023/03/06 22:05:35;;;;;;;18.65;8.88;;;7.40;96.90;;;;;;10512197;28;20050;-64
2023/03/06 22:10:39;;;;;;;19.95;8.48;;;7.50;97.10;;;;;;10513570;28;20452;-65
2023/03/06 22:15:49;;;;;;;17.15;8.13;;;7.50;96.90;;;;;;10525209;28;20032;-66
2023/03/06 22:20:50;;;;;;;;;;;7.60;97.00;;;;;;10507246;28;20024;-66
2023/03/06 22:25:51;;;;;;;17.73;7.85;;;7.50;97.10;;;;;;10509117;28;19908;-66
2023/03/06 22:30:52;;;;;;;17.38;7.10;;;7.50;96.90;;;;;;10510744;28;20039;-66
2023/03/06 22:35:57;;;;;;;16.23;7.00;;;7.50;97.00;;;;;;10524213;28;20495;-66
2023/03/06 22:40:58;;;;;;;18.52;7.25;;;7.50;97.00;;;;;;10532879;28;20016;-66
2023/03/06 22:46:07;;;;;;;17.63;7.47;;;7.40;97.00;;;;;;10522977;28;20046;-66
2023/03/06 22:51:11;;;;;;;14.32;6.57;;;7.40;97.00;;;;;;10526590;28;20113;-67
2023/03/06 22:56:17;;;;;;;16.65;7.40;;;7.40;97.00;;;;;;10524539;28;20158;-66
2023/03/06 23:01:20;;;;;;;16.27;7.20;;;7.40;97.30;;;;;;10531305;28;20661;-66
2023/03/06 23:06:29;;;;;;;12.07;6.70;;;7.40;97.00;;;;;;10522432;28;20065;-66
2023/03/06 23:11:31;;;;;;;15.40;6.63;;;7.40;97.00;;;;;;10523699;28;20035;-66
2023/03/06 23:16:32;;;;;;;16.05;7.05;;;7.40;97.00;;;;;;10527512;28;20542;-66
2023/03/06 23:21:33;;;;;;;14.45;6.65;;;7.40;97.00;;;;;;10516783;28;20626;-67
2023/03/06 23:26:34;;;;;;;14.82;6.80;;;7.40;97.10;;;;;;10532426;28;20036;-67
2023/03/06 23:31:35;;;;;;;15.68;5.97;;;7.40;97.10;;;;;;10518829;28;20031;-66
2023/03/06 23:36:35;;;;;;;12.52;5.50;;;7.40;97.10;;;;;;10527987;28;20037;-66
2023/03/06 23:41:36;;;;;;;12.18;6.25;;;7.40;97.30;;;;;;10533124;28;20094;-66
2023/03/06 23:46:36;;;;;;;11.10;5.95;;;7.40;97.10;;;;;;10537854;28;20123;-66
2023/03/06 23:51:38;;;;;;;8.55;4.68;;;7.40;97.10;;;;;;10531651;28;20028;-66
2023/03/06 23:56:38;;;;;;;11.60;4.65;;;7.40;97.10;;;;;;10535905;28;20024;-66
